Magra, California
Current Conditions -  °F | °C
As of 1:40 AM on Thursday 23 Oct 2014 (Local Time) from KGOO Reporting Station
Clear Clear  
Wind Chill: 57°   Ceiling: Unl
Heat Index: 57°   Visibility: 10mi
Dew Point: 36°   Wind: 5mph
Humidity: 44%   Direction: 140°SE
Pressure: 30.09"   Gusts: NA
Location:  39.1673°N, 120.867°W
Report Text: KGOO 230840Z AUTO 14004KT 10SM CLR 14/02 A3009 RMK AO1
Loading
Personal Weather Stations






























Interactive Weather Map
Tropical Storm Tracking
New forecast layout! Learn more

10-Day Weather Forecast

Advertisements
Track Severe Weather on mobile